sensor_id;sensor_type;location;lat;lon;timestamp;pressure;altitude;pressure_sealevel;temperature;humidity
65784;BME280;52532;53.358;-1.488;2022-10-16T00:02:25;98977.64;;;13.02;54.28
65784;BME280;52532;53.358;-1.488;2022-10-16T00:05:28;98966.33;;;10.69;59.53
65784;BME280;52532;53.358;-1.488;2022-10-16T00:08:32;98968.95;;;11.54;58.61
65784;BME280;52532;53.358;-1.488;2022-10-16T00:11:37;98966.86;;;9.21;64.41
65784;BME280;52532;53.358;-1.488;2022-10-16T00:14:40;98967.03;;;10.99;61.00
65784;BME280;52532;53.358;-1.488;2022-10-16T00:17:45;98965.33;;;9.82;64.09
65784;BME280;52532;53.358;-1.488;2022-10-16T00:20:48;98963.88;;;9.26;66.68
65784;BME280;52532;53.358;-1.488;2022-10-16T00:23:52;98946.89;;;10.18;65.62
65784;BME280;52532;53.358;-1.488;2022-10-16T00:26:55;98944.84;;;10.15;65.84
65784;BME280;52532;53.358;-1.488;2022-10-16T00:29:58;98957.41;;;10.56;66.72
65784;BME280;52532;53.358;-1.488;2022-10-16T00:33:01;98962.08;;;10.45;65.25
65784;BME280;52532;53.358;-1.488;2022-10-16T00:36:05;98973.96;;;10.45;65.47
65784;BME280;52532;53.358;-1.488;2022-10-16T00:39:08;98969.19;;;9.80;69.33
65784;BME280;52532;53.358;-1.488;2022-10-16T00:42:15;98965.62;;;9.73;67.23
65784;BME280;52532;53.358;-1.488;2022-10-16T00:45:18;98967.64;;;11.18;63.74
65784;BME280;52532;53.358;-1.488;2022-10-16T00:48:21;98971.89;;;11.10;64.56
65784;BME280;52532;53.358;-1.488;2022-10-16T00:51:30;98975.45;;;8.82;69.77
65784;BME280;52532;53.358;-1.488;2022-10-16T00:54:33;98968.91;;;9.25;69.89
65784;BME280;52532;53.358;-1.488;2022-10-16T00:57:37;98978.49;;;9.59;69.96
65784;BME280;52532;53.358;-1.488;2022-10-16T01:00:39;98971.30;;;10.81;65.33
65784;BME280;52532;53.358;-1.488;2022-10-16T01:03:42;98979.47;;;10.46;66.47
65784;BME280;52532;53.358;-1.488;2022-10-16T01:06:49;98988.23;;;9.27;69.08
65784;BME280;52532;53.358;-1.488;2022-10-16T01:10:06;98994.26;;;10.93;66.82
65784;BME280;52532;53.358;-1.488;2022-10-16T01:13:12;99003.05;;;9.61;67.88
65784;BME280;52532;53.358;-1.488;2022-10-16T01:16:22;98999.08;;;10.25;67.66
65784;BME280;52532;53.358;-1.488;2022-10-16T01:20:00;99005.94;;;10.72;66.45
65784;BME280;52532;53.358;-1.488;2022-10-16T01:23:14;99006.01;;;11.77;62.99
65784;BME280;52532;53.358;-1.488;2022-10-16T01:26:29;99013.51;;;11.60;61.49
65784;BME280;52532;53.358;-1.488;2022-10-16T01:29:39;99017.98;;;12.45;58.88
65784;BME280;52532;53.358;-1.488;2022-10-16T01:32:45;99016.28;;;11.35;61.78
65784;BME280;52532;53.358;-1.488;2022-10-16T01:35:53;99017.07;;;11.05;63.71
65784;BME280;52532;53.358;-1.488;2022-10-16T01:39:01;99033.09;;;9.53;67.01
65784;BME280;52532;53.358;-1.488;2022-10-16T01:42:09;99036.24;;;9.84;65.51
65784;BME280;52532;53.358;-1.488;2022-10-16T01:45:15;99038.40;;;10.53;64.63
65784;BME280;52532;53.358;-1.488;2022-10-16T01:48:21;99037.67;;;11.13;62.34
65784;BME280;52532;53.358;-1.488;2022-10-16T01:51:27;99042.51;;;11.22;63.12
65784;BME280;52532;53.358;-1.488;2022-10-16T01:54:31;99053.70;;;10.77;66.49
65784;BME280;52532;53.358;-1.488;2022-10-16T01:57:38;99055.53;;;8.73;69.76
65784;BME280;52532;53.358;-1.488;2022-10-16T02:00:44;99055.40;;;10.46;65.69
65784;BME280;52532;53.358;-1.488;2022-10-16T02:03:52;99068.14;;;9.52;68.36
65784;BME280;52532;53.358;-1.488;2022-10-16T02:06:56;99071.43;;;9.74;71.08
65784;BME280;52532;53.358;-1.488;2022-10-16T02:10:00;99074.69;;;12.21;62.07
65784;BME280;52532;53.358;-1.488;2022-10-16T02:13:06;99075.91;;;12.31;59.07
65784;BME280;52532;53.358;-1.488;2022-10-16T02:16:12;99085.70;;;10.48;61.88
65784;BME280;52532;53.358;-1.488;2022-10-16T02:19:17;99087.95;;;11.45;62.18
65784;BME280;52532;53.358;-1.488;2022-10-16T02:22:25;99093.48;;;11.34;62.12
65784;BME280;52532;53.358;-1.488;2022-10-16T02:25:31;99099.92;;;11.67;60.80
65784;BME280;52532;53.358;-1.488;2022-10-16T02:28:39;99103.30;;;11.93;58.67
65784;BME280;52532;53.358;-1.488;2022-10-16T02:31:46;99118.73;;;12.90;57.51
65784;BME280;52532;53.358;-1.488;2022-10-16T02:34:51;99124.68;;;9.64;65.25
65784;BME280;52532;53.358;-1.488;2022-10-16T02:37:55;99131.10;;;12.41;59.43
65784;BME280;52532;53.358;-1.488;2022-10-16T02:40:58;99137.42;;;10.83;62.45
65784;BME280;52532;53.358;-1.488;2022-10-16T02:44:01;99136.91;;;10.58;61.79
65784;BME280;52532;53.358;-1.488;2022-10-16T02:47:04;99153.24;;;12.33;57.56
65784;BME280;52532;53.358;-1.488;2022-10-16T02:50:07;99156.14;;;12.30;58.64
65784;BME280;52532;53.358;-1.488;2022-10-16T02:53:10;99152.05;;;11.23;60.86
65784;BME280;52532;53.358;-1.488;2022-10-16T02:56:13;99155.55;;;12.15;59.03
65784;BME280;52532;53.358;-1.488;2022-10-16T02:59:16;99160.21;;;10.89;62.58
65784;BME280;52532;53.358;-1.488;2022-10-16T03:02:19;99159.99;;;10.88;62.08
65784;BME280;52532;53.358;-1.488;2022-10-16T03:05:22;99170.69;;;12.56;59.33
65784;BME280;52532;53.358;-1.488;2022-10-16T03:08:24;99180.07;;;11.37;61.40
65784;BME280;52532;53.358;-1.488;2022-10-16T03:11:27;99190.52;;;10.99;61.31
65784;BME280;52532;53.358;-1.488;2022-10-16T03:14:30;99195.20;;;10.77;61.79
65784;BME280;52532;53.358;-1.488;2022-10-16T03:17:33;99206.98;;;11.35;59.36
65784;BME280;52532;53.358;-1.488;2022-10-16T03:20:36;99210.66;;;9.58;63.55
65784;BME280;52532;53.358;-1.488;2022-10-16T03:23:39;99210.87;;;11.76;58.17
65784;BME280;52532;53.358;-1.488;2022-10-16T03:26:42;99213.55;;;12.17;55.93
65784;BME280;52532;53.358;-1.488;2022-10-16T03:29:45;99221.54;;;10.84;58.71
65784;BME280;52532;53.358;-1.488;2022-10-16T03:32:47;99228.98;;;11.43;59.76
65784;BME280;52532;53.358;-1.488;2022-10-16T03:35:52;99236.15;;;10.18;62.18
65784;BME280;52532;53.358;-1.488;2022-10-16T03:38:55;99251.27;;;10.74;60.68
65784;BME280;52532;53.358;-1.488;2022-10-16T03:41:58;99256.40;;;9.77;63.54
65784;BME280;52532;53.358;-1.488;2022-10-16T03:45:00;99270.64;;;10.33;61.50
65784;BME280;52532;53.358;-1.488;2022-10-16T03:48:03;99276.08;;;11.99;57.34
65784;BME280;52532;53.358;-1.488;2022-10-16T03:51:06;99281.91;;;11.76;55.97
65784;BME280;52532;53.358;-1.488;2022-10-16T03:54:09;99295.06;;;10.93;59.67
65784;BME280;52532;53.358;-1.488;2022-10-16T03:57:12;99308.02;;;10.49;61.27
65784;BME280;52532;53.358;-1.488;2022-10-16T04:00:15;99312.63;;;10.34;62.02
65784;BME280;52532;53.358;-1.488;2022-10-16T04:03:19;99332.47;;;11.33;58.83
65784;BME280;52532;53.358;-1.488;2022-10-16T04:06:21;99336.70;;;12.10;57.37
65784;BME280;52532;53.358;-1.488;2022-10-16T04:09:24;99342.26;;;11.24;58.60
65784;BME280;52532;53.358;-1.488;2022-10-16T04:12:27;99350.02;;;11.70;57.18
65784;BME280;52532;53.358;-1.488;2022-10-16T04:15:30;99358.26;;;10.81;57.99
65784;BME280;52532;53.358;-1.488;2022-10-16T04:18:33;99371.37;;;10.02;61.89
65784;BME280;52532;53.358;-1.488;2022-10-16T04:21:37;99369.90;;;10.50;61.07
65784;BME280;52532;53.358;-1.488;2022-10-16T04:24:40;99377.80;;;10.56;61.46
65784;BME280;52532;53.358;-1.488;2022-10-16T04:27:43;99387.37;;;12.51;57.11
65784;BME280;52532;53.358;-1.488;2022-10-16T04:30:46;99405.57;;;11.14;59.15
65784;BME280;52532;53.358;-1.488;2022-10-16T04:33:49;99411.82;;;11.37;57.59
65784;BME280;52532;53.358;-1.488;2022-10-16T04:36:51;99419.43;;;12.45;55.76
65784;BME280;52532;53.358;-1.488;2022-10-16T04:39:54;99423.41;;;13.21;53.07
65784;BME280;52532;53.358;-1.488;2022-10-16T04:42:57;99438.52;;;13.00;53.79
65784;BME280;52532;53.358;-1.488;2022-10-16T04:46:00;99446.31;;;11.50;58.17
65784;BME280;52532;53.358;-1.488;2022-10-16T04:49:04;99454.03;;;11.62;57.07
65784;BME280;52532;53.358;-1.488;2022-10-16T04:52:06;99457.69;;;13.03;54.20
65784;BME280;52532;53.358;-1.488;2022-10-16T04:55:11;99459.36;;;11.54;57.45
65784;BME280;52532;53.358;-1.488;2022-10-16T04:58:14;99468.76;;;12.71;54.13
65784;BME280;52532;53.358;-1.488;2022-10-16T05:01:16;99476.43;;;12.32;54.74
65784;BME280;52532;53.358;-1.488;2022-10-16T05:04:19;99478.11;;;12.24;54.27
65784;BME280;52532;53.358;-1.488;2022-10-16T05:07:22;99481.01;;;11.23;55.65
65784;BME280;52532;53.358;-1.488;2022-10-16T05:10:25;99477.91;;;13.70;50.71
65784;BME280;52532;53.358;-1.488;2022-10-16T05:13:28;99490.30;;;13.27;52.58
65784;BME280;52532;53.358;-1.488;2022-10-16T05:16:30;99497.31;;;12.28;53.22
65784;BME280;52532;53.358;-1.488;2022-10-16T05:19:33;99495.41;;;12.21;54.36
65784;BME280;52532;53.358;-1.488;2022-10-16T05:22:36;99508.38;;;11.44;55.04
65784;BME280;52532;53.358;-1.488;2022-10-16T05:25:39;99518.15;;;11.97;54.50
65784;BME280;52532;53.358;-1.488;2022-10-16T05:28:41;99532.02;;;10.59;55.84
65784;BME280;52532;53.358;-1.488;2022-10-16T05:31:44;99541.01;;;10.18;59.70
65784;BME280;52532;53.358;-1.488;2022-10-16T05:34:47;99543.27;;;11.52;55.99
65784;BME280;52532;53.358;-1.488;2022-10-16T05:37:50;99550.77;;;10.73;57.10
65784;BME280;52532;53.358;-1.488;2022-10-16T05:40:53;99552.58;;;11.20;57.10
65784;BME280;52532;53.358;-1.488;2022-10-16T05:43:56;99556.59;;;11.18;55.01
65784;BME280;52532;53.358;-1.488;2022-10-16T05:46:59;99568.26;;;12.12;52.22
65784;BME280;52532;53.358;-1.488;2022-10-16T05:50:02;99567.81;;;9.61;58.37
65784;BME280;52532;53.358;-1.488;2022-10-16T05:53:06;99569.17;;;10.06;56.59
65784;BME280;52532;53.358;-1.488;2022-10-16T05:56:10;99575.45;;;11.45;54.16
65784;BME280;52532;53.358;-1.488;2022-10-16T05:59:14;99572.06;;;12.88;51.19
65784;BME280;52532;53.358;-1.488;2022-10-16T06:02:17;99574.81;;;12.01;53.66
65784;BME280;52532;53.358;-1.488;2022-10-16T06:05:20;99587.90;;;12.34;51.12
65784;BME280;52532;53.358;-1.488;2022-10-16T06:08:23;99601.16;;;11.57;53.34
65784;BME280;52532;53.358;-1.488;2022-10-16T06:11:29;99605.20;;;8.35;59.45
65784;BME280;52532;53.358;-1.488;2022-10-16T06:14:32;99602.80;;;8.89;58.82
65784;BME280;52532;53.358;-1.488;2022-10-16T06:17:35;99601.91;;;9.60;58.99
65784;BME280;52532;53.358;-1.488;2022-10-16T06:20:38;99605.23;;;9.76;58.44
65784;BME280;52532;53.358;-1.488;2022-10-16T06:23:41;99605.48;;;9.91;56.23
65784;BME280;52532;53.358;-1.488;2022-10-16T06:26:44;99613.39;;;11.51;51.81
65784;BME280;52532;53.358;-1.488;2022-10-16T06:29:46;99607.90;;;12.19;50.07
65784;BME280;52532;53.358;-1.488;2022-10-16T06:32:49;99622.21;;;9.35;56.01
65784;BME280;52532;53.358;-1.488;2022-10-16T06:35:52;99624.40;;;10.38;54.10
65784;BME280;52532;53.358;-1.488;2022-10-16T06:38:55;99635.74;;;10.68;53.36
65784;BME280;52532;53.358;-1.488;2022-10-16T06:41:58;99643.32;;;9.40;57.53
65784;BME280;52532;53.358;-1.488;2022-10-16T06:45:00;99646.91;;;10.59;55.13
65784;BME280;52532;53.358;-1.488;2022-10-16T06:48:03;99658.71;;;11.15;54.15
65784;BME280;52532;53.358;-1.488;2022-10-16T06:51:09;99667.18;;;9.12;59.41
65784;BME280;52532;53.358;-1.488;2022-10-16T06:54:19;99665.31;;;9.76;58.32
65784;BME280;52532;53.358;-1.488;2022-10-16T06:57:25;99672.10;;;9.72;57.51
65784;BME280;52532;53.358;-1.488;2022-10-16T07:00:28;99669.76;;;9.41;59.41
65784;BME280;52532;53.358;-1.488;2022-10-16T07:03:31;99679.78;;;7.55;62.94
65784;BME280;52532;53.358;-1.488;2022-10-16T07:06:34;99688.02;;;7.23;66.29
65784;BME280;52532;53.358;-1.488;2022-10-16T07:09:37;99685.32;;;9.53;58.01
65784;BME280;52532;53.358;-1.488;2022-10-16T07:12:40;99697.15;;;8.61;60.40
65784;BME280;52532;53.358;-1.488;2022-10-16T07:15:43;99702.41;;;7.97;62.82
65784;BME280;52532;53.358;-1.488;2022-10-16T07:18:47;99706.70;;;7.99;64.41
65784;BME280;52532;53.358;-1.488;2022-10-16T07:21:51;99708.66;;;10.46;57.21
65784;BME280;52532;53.358;-1.488;2022-10-16T07:24:54;99723.54;;;10.67;57.00
65784;BME280;52532;53.358;-1.488;2022-10-16T07:27:56;99724.81;;;9.15;60.02
65784;BME280;52532;53.358;-1.488;2022-10-16T07:31:01;99724.68;;;8.32;61.69
65784;BME280;52532;53.358;-1.488;2022-10-16T07:34:05;99726.15;;;9.62;58.72
65784;BME280;52532;53.358;-1.488;2022-10-16T07:37:07;99733.15;;;9.77;58.14
65784;BME280;52532;53.358;-1.488;2022-10-16T07:40:11;99739.07;;;9.82;58.33
65784;BME280;52532;53.358;-1.488;2022-10-16T07:43:14;99742.53;;;9.30;60.57
65784;BME280;52532;53.358;-1.488;2022-10-16T07:46:18;99741.21;;;8.49;60.38
65784;BME280;52532;53.358;-1.488;2022-10-16T07:49:21;99750.49;;;7.79;62.58
65784;BME280;52532;53.358;-1.488;2022-10-16T07:52:24;99758.21;;;8.33;64.57
65784;BME280;52532;53.358;-1.488;2022-10-16T07:55:32;99762.09;;;8.92;62.81
65784;BME280;52532;53.358;-1.488;2022-10-16T07:58:35;99768.88;;;8.74;62.64
65784;BME280;52532;53.358;-1.488;2022-10-16T08:01:39;99786.16;;;8.67;63.46
65784;BME280;52532;53.358;-1.488;2022-10-16T08:04:46;99780.38;;;9.97;58.77
65784;BME280;52532;53.358;-1.488;2022-10-16T08:07:50;99784.21;;;8.84;63.15
65784;BME280;52532;53.358;-1.488;2022-10-16T08:10:53;99793.69;;;9.71;59.79
65784;BME280;52532;53.358;-1.488;2022-10-16T08:13:57;99808.02;;;10.77;58.02
65784;BME280;52532;53.358;-1.488;2022-10-16T08:16:59;99811.32;;;10.78;57.18
65784;BME280;52532;53.358;-1.488;2022-10-16T08:20:04;99820.34;;;11.35;56.47
65784;BME280;52532;53.358;-1.488;2022-10-16T08:23:09;99831.89;;;12.77;52.48
65784;BME280;52532;53.358;-1.488;2022-10-16T08:26:13;99835.03;;;9.68;60.49
65784;BME280;52532;53.358;-1.488;2022-10-16T08:29:16;99836.95;;;9.78;60.73
65784;BME280;52532;53.358;-1.488;2022-10-16T08:32:18;99833.49;;;11.46;56.12
65784;BME280;52532;53.358;-1.488;2022-10-16T08:35:21;99841.34;;;12.72;52.92
65784;BME280;52532;53.358;-1.488;2022-10-16T08:38:24;99848.43;;;13.21;50.86
65784;BME280;52532;53.358;-1.488;2022-10-16T08:41:47;99851.41;;;10.46;54.83
65784;BME280;52532;53.358;-1.488;2022-10-16T08:45:09;99866.28;;;12.18;51.81
65784;BME280;52532;53.358;-1.488;2022-10-16T08:48:21;99883.08;;;13.71;49.65
65784;BME280;52532;53.358;-1.488;2022-10-16T08:51:30;99896.26;;;12.63;50.75
65784;BME280;52532;53.358;-1.488;2022-10-16T08:54:37;99899.67;;;12.22;51.80
65784;BME280;52532;53.358;-1.488;2022-10-16T08:57:44;99907.18;;;9.82;61.39
65784;BME280;52532;53.358;-1.488;2022-10-16T09:00:48;99908.91;;;10.61;57.10
65784;BME280;52532;53.358;-1.488;2022-10-16T09:04:10;99914.32;;;12.09;53.52
65784;BME280;52532;53.358;-1.488;2022-10-16T09:07:27;99926.88;;;13.01;50.47
65784;BME280;52532;53.358;-1.488;2022-10-16T09:10:42;99934.62;;;12.92;52.72
65784;BME280;52532;53.358;-1.488;2022-10-16T09:13:51;99939.34;;;12.87;50.14
65784;BME280;52532;53.358;-1.488;2022-10-16T09:17:00;99943.33;;;12.91;49.77
65784;BME280;52532;53.358;-1.488;2022-10-16T09:20:45;99937.61;;;11.50;53.33
65784;BME280;52532;53.358;-1.488;2022-10-16T09:23:51;99943.22;;;14.56;46.37
65784;BME280;52532;53.358;-1.488;2022-10-16T09:27:15;99956.30;;;12.55;51.37
65784;BME280;52532;53.358;-1.488;2022-10-16T09:30:22;99961.57;;;14.13;48.74
65784;BME280;52532;53.358;-1.488;2022-10-16T09:33:34;99960.70;;;14.28;47.87
65784;BME280;52532;53.358;-1.488;2022-10-16T09:36:41;99970.09;;;14.52;46.73
65784;BME280;52532;53.358;-1.488;2022-10-16T09:39:45;99975.16;;;13.12;48.42
65784;BME280;52532;53.358;-1.488;2022-10-16T09:42:48;99974.30;;;13.58;46.24
65784;BME280;52532;53.358;-1.488;2022-10-16T09:45:57;99978.98;;;11.23;52.66
65784;BME280;52532;53.358;-1.488;2022-10-16T09:49:03;99986.90;;;13.87;51.53
65784;BME280;52532;53.358;-1.488;2022-10-16T09:52:12;99993.93;;;13.54;49.26
65784;BME280;52532;53.358;-1.488;2022-10-16T09:55:18;99987.44;;;13.73;49.35
65784;BME280;52532;53.358;-1.488;2022-10-16T09:58:22;100001.04;;;13.95;48.40
65784;BME280;52532;53.358;-1.488;2022-10-16T10:01:35;100002.84;;;14.29;47.21
65784;BME280;52532;53.358;-1.488;2022-10-16T10:04:41;100017.07;;;12.57;49.25
65784;BME280;52532;53.358;-1.488;2022-10-16T10:07:45;100017.74;;;14.54;47.95
65784;BME280;52532;53.358;-1.488;2022-10-16T10:10:48;100022.43;;;13.63;48.79
65784;BME280;52532;53.358;-1.488;2022-10-16T10:13:52;100030.25;;;13.48;48.17
65784;BME280;52532;53.358;-1.488;2022-10-16T10:17:10;100025.50;;;14.04;45.74
65784;BME280;52532;53.358;-1.488;2022-10-16T10:20:22;100031.07;;;14.10;44.77
65784;BME280;52532;53.358;-1.488;2022-10-16T10:23:28;100030.43;;;13.32;46.48
65784;BME280;52532;53.358;-1.488;2022-10-16T10:26:32;100025.26;;;12.90;46.43
65784;BME280;52532;53.358;-1.488;2022-10-16T10:29:45;100031.17;;;11.86;49.02
65784;BME280;52532;53.358;-1.488;2022-10-16T10:33:08;100030.40;;;11.70;51.11
65784;BME280;52532;53.358;-1.488;2022-10-16T10:36:25;100026.70;;;12.79;46.81
65784;BME280;52532;53.358;-1.488;2022-10-16T10:39:34;100030.46;;;13.17;45.93
65784;BME280;52532;53.358;-1.488;2022-10-16T10:42:46;100035.17;;;12.28;48.02
65784;BME280;52532;53.358;-1.488;2022-10-16T10:45:56;100029.61;;;11.29;49.31
65784;BME280;52532;53.358;-1.488;2022-10-16T10:49:16;100042.74;;;12.92;47.86
65784;BME280;52532;53.358;-1.488;2022-10-16T10:52:38;100038.15;;;13.10;45.25
65784;BME280;52532;53.358;-1.488;2022-10-16T10:55:47;100048.59;;;14.02;44.20
65784;BME280;52532;53.358;-1.488;2022-10-16T10:59:07;100057.45;;;12.29;46.29
65784;BME280;52532;53.358;-1.488;2022-10-16T11:02:17;100072.68;;;12.10;46.93
65784;BME280;52532;53.358;-1.488;2022-10-16T11:05:35;100087.55;;;14.17;44.38
65784;BME280;52532;53.358;-1.488;2022-10-16T11:08:43;100084.86;;;10.90;48.95
65784;BME280;52532;53.358;-1.488;2022-10-16T11:11:52;100080.63;;;11.67;48.38
65784;BME280;52532;53.358;-1.488;2022-10-16T11:15:02;100084.44;;;11.37;49.33
65784;BME280;52532;53.358;-1.488;2022-10-16T11:18:13;100089.57;;;11.83;46.40
65784;BME280;52532;53.358;-1.488;2022-10-16T11:21:19;100071.75;;;12.21;46.08
65784;BME280;52532;53.358;-1.488;2022-10-16T11:24:31;100069.45;;;13.87;42.86
65784;BME280;52532;53.358;-1.488;2022-10-16T11:27:40;100058.93;;;12.38;43.93
65784;BME280;52532;53.358;-1.488;2022-10-16T11:30:47;100059.04;;;12.95;43.44
65784;BME280;52532;53.358;-1.488;2022-10-16T11:33:59;100066.29;;;12.32;44.04
65784;BME280;52532;53.358;-1.488;2022-10-16T11:37:08;100071.44;;;12.02;46.18
65784;BME280;52532;53.358;-1.488;2022-10-16T11:40:21;100067.99;;;13.39;42.81
65784;BME280;52532;53.358;-1.488;2022-10-16T11:43:30;100063.38;;;14.35;40.25
65784;BME280;52532;53.358;-1.488;2022-10-16T11:46:36;100069.59;;;14.00;41.59
65784;BME280;52532;53.358;-1.488;2022-10-16T11:49:43;100071.18;;;12.64;42.45
65784;BME280;52532;53.358;-1.488;2022-10-16T11:52:53;100073.85;;;14.02;38.44
65784;BME280;52532;53.358;-1.488;2022-10-16T11:55:58;100069.46;;;12.80;39.77
65784;BME280;52532;53.358;-1.488;2022-10-16T11:59:03;100070.20;;;13.48;39.45
65784;BME280;52532;53.358;-1.488;2022-10-16T12:02:28;100066.91;;;15.41;37.12
65784;BME280;52532;53.358;-1.488;2022-10-16T12:05:52;100072.83;;;16.57;34.03
65784;BME280;52532;53.358;-1.488;2022-10-16T12:08:59;100074.31;;;14.17;37.69
65784;BME280;52532;53.358;-1.488;2022-10-16T12:12:02;100067.72;;;14.59;37.71
65784;BME280;52532;53.358;-1.488;2022-10-16T12:15:20;100068.72;;;14.14;39.87
65784;BME280;52532;53.358;-1.488;2022-10-16T12:18:24;100064.04;;;15.29;36.34
65784;BME280;52532;53.358;-1.488;2022-10-16T12:21:31;100070.99;;;15.43;34.48
65784;BME280;52532;53.358;-1.488;2022-10-16T12:24:36;100076.33;;;17.10;32.48
65784;BME280;52532;53.358;-1.488;2022-10-16T12:27:39;100074.16;;;16.28;35.26
65784;BME280;52532;53.358;-1.488;2022-10-16T12:30:43;100078.41;;;14.66;36.52
65784;BME280;52532;53.358;-1.488;2022-10-16T12:34:01;100090.00;;;15.51;34.80
65784;BME280;52532;53.358;-1.488;2022-10-16T12:37:12;100097.58;;;14.34;35.74
65784;BME280;52532;53.358;-1.488;2022-10-16T12:40:25;100088.66;;;14.66;34.59
65784;BME280;52532;53.358;-1.488;2022-10-16T12:43:39;100090.50;;;14.03;37.11
65784;BME280;52532;53.358;-1.488;2022-10-16T12:46:44;100089.75;;;14.83;36.39
65784;BME280;52532;53.358;-1.488;2022-10-16T12:49:49;100094.34;;;16.14;33.41
65784;BME280;52532;53.358;-1.488;2022-10-16T12:52:52;100101.88;;;14.72;35.60
65784;BME280;52532;53.358;-1.488;2022-10-16T12:56:04;100105.55;;;15.89;34.99
65784;BME280;52532;53.358;-1.488;2022-10-16T12:59:21;100108.82;;;16.36;34.43
65784;BME280;52532;53.358;-1.488;2022-10-16T13:03:20;100105.51;;;17.35;34.99
65784;BME280;52532;53.358;-1.488;2022-10-16T13:06:35;100105.33;;;16.41;34.44
65784;BME280;52532;53.358;-1.488;2022-10-16T13:09:52;100114.34;;;16.07;36.47
65784;BME280;52532;53.358;-1.488;2022-10-16T13:13:09;100113.71;;;17.69;35.70
65784;BME280;52532;53.358;-1.488;2022-10-16T13:16:21;100111.91;;;16.36;36.72
65784;BME280;52532;53.358;-1.488;2022-10-16T13:19:30;100113.78;;;15.21;38.78
65784;BME280;52532;53.358;-1.488;2022-10-16T13:22:40;100111.73;;;14.36;37.67
65784;BME280;52532;53.358;-1.488;2022-10-16T13:25:58;100106.52;;;14.10;38.09
65784;BME280;52532;53.358;-1.488;2022-10-16T13:29:04;100099.45;;;14.58;37.20
65784;BME280;52532;53.358;-1.488;2022-10-16T13:32:09;100101.53;;;13.26;42.28
65784;BME280;52532;53.358;-1.488;2022-10-16T13:35:23;100101.80;;;15.94;35.59
65784;BME280;52532;53.358;-1.488;2022-10-16T13:38:27;100105.26;;;15.88;35.59
65784;BME280;52532;53.358;-1.488;2022-10-16T13:41:31;100099.28;;;14.39;38.48
65784;BME280;52532;53.358;-1.488;2022-10-16T13:44:39;100099.78;;;14.66;37.62
65784;BME280;52532;53.358;-1.488;2022-10-16T13:47:43;100102.93;;;17.59;34.67
65784;BME280;52532;53.358;-1.488;2022-10-16T13:50:46;100099.87;;;12.84;39.96
65784;BME280;52532;53.358;-1.488;2022-10-16T13:53:49;100089.87;;;16.10;36.83
65784;BME280;52532;53.358;-1.488;2022-10-16T13:56:52;100095.99;;;16.58;36.49
65784;BME280;52532;53.358;-1.488;2022-10-16T13:59:55;100103.65;;;16.71;36.66
65784;BME280;52532;53.358;-1.488;2022-10-16T14:03:01;100106.90;;;16.74;35.51
65784;BME280;52532;53.358;-1.488;2022-10-16T14:06:11;100109.03;;;17.54;36.30
65784;BME280;52532;53.358;-1.488;2022-10-16T14:09:21;100118.88;;;18.26;36.08
65784;BME280;52532;53.358;-1.488;2022-10-16T14:12:25;100115.36;;;15.15;39.85
65784;BME280;52532;53.358;-1.488;2022-10-16T14:15:29;100113.37;;;12.89;43.06
65784;BME280;52532;53.358;-1.488;2022-10-16T14:18:33;100095.65;;;14.55;39.11
65784;BME280;52532;53.358;-1.488;2022-10-16T14:21:37;100103.00;;;17.26;36.26
65784;BME280;52532;53.358;-1.488;2022-10-16T14:24:43;100112.99;;;15.39;36.40
65784;BME280;52532;53.358;-1.488;2022-10-16T14:27:55;100110.62;;;16.41;38.06
65784;BME280;52532;53.358;-1.488;2022-10-16T14:31:00;100115.50;;;16.67;37.83
65784;BME280;52532;53.358;-1.488;2022-10-16T14:34:03;100115.88;;;12.50;42.16
65784;BME280;52532;53.358;-1.488;2022-10-16T14:37:10;100119.16;;;15.13;37.99
65784;BME280;52532;53.358;-1.488;2022-10-16T14:40:18;100120.97;;;14.97;38.55
65784;BME280;52532;53.358;-1.488;2022-10-16T14:43:32;100116.79;;;16.59;36.40
65784;BME280;52532;53.358;-1.488;2022-10-16T14:46:38;100119.37;;;17.57;35.95
65784;BME280;52532;53.358;-1.488;2022-10-16T14:49:41;100124.56;;;14.79;39.42
65784;BME280;52532;53.358;-1.488;2022-10-16T14:52:49;100123.37;;;18.13;37.33
65784;BME280;52532;53.358;-1.488;2022-10-16T14:55:57;100127.42;;;15.81;37.96
65784;BME280;52532;53.358;-1.488;2022-10-16T14:59:01;100134.66;;;14.50;39.07
65784;BME280;52532;53.358;-1.488;2022-10-16T15:02:18;100134.32;;;17.10;36.31
65784;BME280;52532;53.358;-1.488;2022-10-16T15:05:26;100128.94;;;16.26;35.78
65784;BME280;52532;53.358;-1.488;2022-10-16T15:08:29;100132.02;;;17.69;34.85
65784;BME280;52532;53.358;-1.488;2022-10-16T15:11:32;100134.91;;;15.22;36.62
65784;BME280;52532;53.358;-1.488;2022-10-16T15:14:37;100129.26;;;16.46;36.13
65784;BME280;52532;53.358;-1.488;2022-10-16T15:17:40;100122.69;;;16.39;34.80
65784;BME280;52532;53.358;-1.488;2022-10-16T15:20:42;100104.64;;;17.46;34.39
65784;BME280;52532;53.358;-1.488;2022-10-16T15:23:45;100111.64;;;18.47;34.34
65784;BME280;52532;53.358;-1.488;2022-10-16T15:26:48;100103.77;;;18.52;33.48
65784;BME280;52532;53.358;-1.488;2022-10-16T15:29:51;100094.28;;;14.84;38.54
65784;BME280;52532;53.358;-1.488;2022-10-16T15:32:54;100089.94;;;17.18;36.39
65784;BME280;52532;53.358;-1.488;2022-10-16T15:35:58;100089.36;;;18.39;34.21
65784;BME280;52532;53.358;-1.488;2022-10-16T15:39:01;100081.69;;;17.00;36.46
65784;BME280;52532;53.358;-1.488;2022-10-16T15:42:03;100083.94;;;17.95;35.10
65784;BME280;52532;53.358;-1.488;2022-10-16T15:45:10;100090.14;;;18.22;35.07
65784;BME280;52532;53.358;-1.488;2022-10-16T15:48:13;100094.86;;;16.14;38.87
65784;BME280;52532;53.358;-1.488;2022-10-16T15:51:17;100095.78;;;16.25;38.02
65784;BME280;52532;53.358;-1.488;2022-10-16T15:54:20;100092.31;;;15.67;39.13
65784;BME280;52532;53.358;-1.488;2022-10-16T15:57:25;100098.35;;;18.32;35.86
65784;BME280;52532;53.358;-1.488;2022-10-16T16:00:30;100094.64;;;18.71;34.72
65784;BME280;52532;53.358;-1.488;2022-10-16T16:03:33;100084.20;;;18.81;34.79
65784;BME280;52532;53.358;-1.488;2022-10-16T16:06:38;100077.81;;;17.76;35.05
65784;BME280;52532;53.358;-1.488;2022-10-16T16:09:46;100072.89;;;17.52;36.15
65784;BME280;52532;53.358;-1.488;2022-10-16T16:12:50;100063.96;;;18.70;33.29